SCCI/PUQ METAR and TAF weather

Enter ICAO airport designator
Station Type Date Time Source
SCCI METAR 2019/08/25 07:00 UTC NOAA

SCCI 250700Z 32012KT CAVOK 04/01 Q1003 NOSIG


Station Type Date Time Source
SCCI Decoded METAR 2019/08/25 07:00 UTC NOAA

Station name not available
Aug 25, 2019 - 03:00 AM EDT / 2019.08.25 0700 UTC
Wind: from the NW (320 degrees) at 14 MPH (12 KT):0
Visibility: greater than 7 mile(s):0
Temperature: 39 F (4 C)
Dew Point: 33 F (1 C)
Relative Humidity: 80%
Pressure (altimeter): 29.62 in. Hg (1003 hPa)
ob: SCCI 250700Z 32012KT CAVOK 04/01 Q1003 NOSIG
cycle: 7

Station Type Date Time Source
SCCI TAF 2019/08/25 06:00 UTC NOAA

TAF SCCI 250432Z 2506/2606 31015KT 9999 FEW030 TN02/2511Z TX08/2519Z PROB40
TEMPO 2506/2514 28005KT SCT008 BKN013
BECMG 2515/2517 35013KT SCT040
BECMG 2523/2601 04015G25KT
BECMG 2604/2606 05028G38KT

Example: see airport list